sensor_id;sensor_type;location;lat;lon;timestamp;pressure;altitude;pressure_sealevel;temperature;humidity
54369;BME280;40266;52.434;17.056;2023-02-01T00:02:07;99698.52;;;1.64;100.00
54369;BME280;40266;52.434;17.056;2023-02-01T00:04:50;99696.45;;;1.64;100.00
54369;BME280;40266;52.434;17.056;2023-02-01T00:07:33;99700.40;;;1.63;100.00
54369;BME280;40266;52.434;17.056;2023-02-01T00:10:16;99698.15;;;1.61;100.00
54369;BME280;40266;52.434;17.056;2023-02-01T00:12:59;99697.97;;;1.61;100.00
54369;BME280;40266;52.434;17.056;2023-02-01T00:15:42;99703.48;;;1.63;100.00
54369;BME280;40266;52.434;17.056;2023-02-01T00:18:25;99700.73;;;1.63;100.00
54369;BME280;40266;52.434;17.056;2023-02-01T00:21:09;99697.13;;;1.65;100.00
54369;BME280;40266;52.434;17.056;2023-02-01T00:23:52;99698.33;;;1.66;100.00
54369;BME280;40266;52.434;17.056;2023-02-01T00:26:42;99697.64;;;1.66;100.00
54369;BME280;40266;52.434;17.056;2023-02-01T00:29:25;99703.50;;;1.66;100.00
54369;BME280;40266;52.434;17.056;2023-02-01T00:32:08;99705.56;;;1.65;100.00
54369;BME280;40266;52.434;17.056;2023-02-01T00:34:52;99703.84;;;1.68;100.00
54369;BME280;40266;52.434;17.056;2023-02-01T00:37:35;99709.87;;;1.68;100.00
54369;BME280;40266;52.434;17.056;2023-02-01T00:40:18;99706.79;;;1.69;100.00
54369;BME280;40266;52.434;17.056;2023-02-01T00:43:01;99700.58;;;1.70;100.00
54369;BME280;40266;52.434;17.056;2023-02-01T00:45:47;99703.17;;;1.70;100.00
54369;BME280;40266;52.434;17.056;2023-02-01T00:48:31;99707.12;;;1.69;100.00
54369;BME280;40266;52.434;17.056;2023-02-01T00:51:17;99711.76;;;1.68;100.00
54369;BME280;40266;52.434;17.056;2023-02-01T00:54:01;99710.23;;;1.71;100.00
54369;BME280;40266;52.434;17.056;2023-02-01T00:56:47;99711.11;;;1.77;100.00
54369;BME280;40266;52.434;17.056;2023-02-01T00:59:30;99716.46;;;1.84;100.00
54369;BME280;40266;52.434;17.056;2023-02-01T01:02:13;99716.65;;;1.89;100.00
54369;BME280;40266;52.434;17.056;2023-02-01T01:04:56;99717.70;;;1.96;100.00
54369;BME280;40266;52.434;17.056;2023-02-01T01:07:39;99717.18;;;2.02;100.00
54369;BME280;40266;52.434;17.056;2023-02-01T01:10:24;99718.41;;;2.07;100.00
54369;BME280;40266;52.434;17.056;2023-02-01T01:13:08;99715.31;;;2.11;100.00
54369;BME280;40266;52.434;17.056;2023-02-01T01:15:51;99714.30;;;2.15;100.00
54369;BME280;40266;52.434;17.056;2023-02-01T01:18:34;99712.56;;;2.18;100.00
54369;BME280;40266;52.434;17.056;2023-02-01T01:21:18;99709.64;;;2.22;100.00
54369;BME280;40266;52.434;17.056;2023-02-01T01:24:01;99707.92;;;2.25;100.00
54369;BME280;40266;52.434;17.056;2023-02-01T01:26:44;99709.65;;;2.28;100.00
54369;BME280;40266;52.434;17.056;2023-02-01T01:29:27;99702.77;;;2.31;100.00
54369;BME280;40266;52.434;17.056;2023-02-01T01:32:10;99708.09;;;2.34;100.00
54369;BME280;40266;52.434;17.056;2023-02-01T01:34:53;99711.21;;;2.37;100.00
54369;BME280;40266;52.434;17.056;2023-02-01T01:37:36;99710.69;;;2.40;100.00
54369;BME280;40266;52.434;17.056;2023-02-01T01:40:19;99710.69;;;2.42;100.00
54369;BME280;40266;52.434;17.056;2023-02-01T01:43:03;99714.66;;;2.44;100.00
54369;BME280;40266;52.434;17.056;2023-02-01T01:45:46;99713.27;;;2.44;100.00
54369;BME280;40266;52.434;17.056;2023-02-01T01:48:30;99712.58;;;2.45;100.00
54369;BME280;40266;52.434;17.056;2023-02-01T01:51:16;99711.90;;;2.46;100.00
54369;BME280;40266;52.434;17.056;2023-02-01T01:54:13;99710.52;;;2.47;100.00
54369;BME280;40266;52.434;17.056;2023-02-01T01:57:05;99711.73;;;2.49;100.00
54369;BME280;40266;52.434;17.056;2023-02-01T02:00:12;99713.96;;;2.50;100.00
54369;BME280;40266;52.434;17.056;2023-02-01T02:57:15;99698.11;;;2.60;100.00
54369;BME280;40266;52.434;17.056;2023-02-01T03:01:18;99709.83;;;2.57;100.00
54369;BME280;40266;52.434;17.056;2023-02-01T04:39:20;99671.73;;;2.26;99.54
54369;BME280;40266;52.434;17.056;2023-02-01T05:11:38;99650.05;;;2.29;98.90
54369;BME280;40266;52.434;17.056;2023-02-01T05:43:54;99664.99;;;2.73;98.13
54369;BME280;40266;52.434;17.056;2023-02-01T08:42:07;99620.98;;;3.91;97.31
54369;BME280;40266;52.434;17.056;2023-02-01T09:34:50;99624.61;;;3.90;96.26
54369;BME280;40266;52.434;17.056;2023-02-01T17:30:35;99558.02;;;2.90;100.00
54369;BME280;40266;52.434;17.056;2023-02-01T17:34:41;99548.88;;;2.91;100.00
54369;BME280;40266;52.434;17.056;2023-02-01T17:42:32;99556.14;;;2.87;100.00
54369;BME280;40266;52.434;17.056;2023-02-01T18:22:45;99525.67;;;2.15;100.00
54369;BME280;40266;52.434;17.056;2023-02-01T18:42:50;99499.16;;;2.03;100.00
54369;BME280;40266;52.434;17.056;2023-02-01T19:38:24;99451.33;;;1.86;100.00
54369;BME280;40266;52.434;17.056;2023-02-01T21:47:51;99524.06;;;2.44;100.00
